Time;durP1;ratioP1;P1;durP2;ratioP2;P2;SDS_P1;SDS_P2;PMS_P1;PMS_P2;Temp;Humidity;BMP_temperature;BMP_pressure;BME280_temperature;BME280_humidity;BME280_pressure;Samples;Min_cycle;Max_cycle;Signal;HPM_P1;HPM_P2
2021/09/12 00:00:35;;;;;;;6.67;6.17;;;15.80;99.90;;;;;;4898547;29;20179;-64
2021/09/12 00:03:00;;;;;;;7.13;6.37;;;15.80;99.90;;;;;;4910080;29;20445;-64
2021/09/12 00:05:26;;;;;;;7.30;6.60;;;15.80;99.90;;;;;;4915327;29;20182;-63
2021/09/12 00:07:52;;;;;;;7.10;5.83;;;15.70;99.90;;;;;;4901353;29;20218;-63
2021/09/12 00:10:17;;;;;;;7.00;6.50;;;15.70;99.90;;;;;;4896844;29;20207;-62
2021/09/12 00:12:43;;;;;;;7.20;6.50;;;15.70;99.90;;;;;;4897094;29;20185;-62
2021/09/12 00:15:10;;;;;;;8.00;6.90;;;15.70;99.90;;;;;;4896856;29;20680;-63
2021/09/12 00:17:36;;;;;;;6.87;6.17;;;15.70;99.90;;;;;;4896565;29;20251;-62
2021/09/12 00:20:04;;;;;;;6.80;6.13;;;15.70;99.90;;;;;;4896944;29;20918;-62
2021/09/12 00:22:29;;;;;;;6.30;5.53;;;15.70;99.90;;;;;;4898731;29;20437;-62
2021/09/12 00:24:55;;;;;;;7.07;6.47;;;15.80;99.90;;;;;;4901843;29;20435;-63
2021/09/12 00:27:20;;;;;;;6.33;5.73;;;15.80;99.90;;;;;;4919197;29;20244;-63
2021/09/12 00:29:46;;;;;;;6.90;6.30;;;15.70;99.90;;;;;;4919034;29;20205;-62
2021/09/12 00:32:11;;;;;;;7.23;6.63;;;15.70;99.90;;;;;;4900652;29;20175;-63
2021/09/12 00:34:37;;;;;;;8.73;6.17;;;15.60;99.90;;;;;;4906836;29;20179;-63
2021/09/12 00:37:03;;;;;;;5.97;5.37;;;15.60;99.90;;;;;;4913008;29;20259;-62
2021/09/12 00:39:29;;;;;;;6.70;6.17;;;15.60;99.90;;;;;;4900451;29;20656;-62
2021/09/12 00:41:55;;;;;;;9.27;6.17;;;15.60;99.90;;;;;;4900519;29;20637;-62
2021/09/12 00:44:23;;;;;;;6.67;6.13;;;15.60;99.90;;;;;;4906967;29;20979;-62
2021/09/12 00:46:48;;;;;;;7.67;6.97;;;15.60;99.90;;;;;;4918788;29;20817;-62
2021/09/12 00:49:15;;;;;;;6.90;6.30;;;15.50;99.90;;;;;;4918418;29;20458;-63
2021/09/12 00:51:40;;;;;;;6.90;6.30;;;15.50;99.90;;;;;;4915182;29;20193;-62
2021/09/12 00:54:08;;;;;;;6.90;6.40;;;15.40;99.90;;;;;;4913012;29;20517;-63
2021/09/12 00:56:39;;;;;;;8.03;5.87;;;15.40;99.90;;;;;;4916093;29;20652;-62
2021/09/12 00:59:09;;;;;;;6.40;5.90;;;15.40;99.90;;;;;;4899926;29;20478;-63
2021/09/12 01:01:36;;;;;;;6.47;5.97;;;15.40;99.90;;;;;;4901173;29;20507;-63
2021/09/12 01:04:02;;;;;;;7.00;6.50;;;15.30;99.90;;;;;;4918357;29;20848;-63
2021/09/12 01:06:29;;;;;;;6.17;5.67;;;15.30;99.90;;;;;;4904010;29;20434;-62
2021/09/12 01:08:54;;;;;;;6.93;6.00;;;15.40;99.90;;;;;;4899548;29;22087;-63
2021/09/12 01:11:19;;;;;;;7.13;6.40;;;15.40;99.90;;;;;;4899894;29;20589;-63
2021/09/12 01:13:45;;;;;;;8.40;6.23;;;15.30;99.90;;;;;;4899935;29;20266;-64
2021/09/12 01:16:12;;;;;;;7.90;5.83;;;15.30;99.90;;;;;;4899772;29;20657;-62
2021/09/12 01:18:39;;;;;;;6.30;5.80;;;15.40;99.90;;;;;;4899616;29;20233;-64
2021/09/12 01:21:05;;;;;;;9.20;6.20;;;15.40;99.90;;;;;;4899559;29;20945;-64
2021/09/12 01:23:30;;;;;;;6.87;6.17;;;15.40;99.90;;;;;;4917407;29;20445;-64
2021/09/12 01:25:56;;;;;;;6.90;6.30;;;15.30;99.90;;;;;;4918813;29;20414;-64
2021/09/12 01:28:22;;;;;;;7.23;6.63;;;15.20;99.90;;;;;;4916138;29;20210;-64
2021/09/12 01:30:48;;;;;;;7.97;7.17;;;15.20;99.90;;;;;;4917765;29;20581;-65
2021/09/12 01:33:13;;;;;;;9.17;7.93;;;15.20;99.90;;;;;;4898709;29;20427;-64
2021/09/12 01:35:39;;;;;;;8.93;8.23;;;15.20;99.90;;;;;;4899408;29;20171;-64
2021/09/12 01:38:04;;;;;;;8.93;7.00;;;15.20;99.90;;;;;;4899193;29;20242;-64
2021/09/12 01:40:30;;;;;;;8.13;7.43;;;15.20;99.90;;;;;;4899426;29;20200;-64
2021/09/12 01:42:58;;;;;;;8.17;7.37;;;15.10;99.90;;;;;;4899678;29;20279;-64
2021/09/12 01:45:23;;;;;;;6.93;6.23;;;15.10;99.90;;;;;;4909417;29;20182;-65
2021/09/12 01:47:49;;;;;;;7.33;6.30;;;15.20;99.90;;;;;;4916706;29;20521;-65
2021/09/12 01:50:16;;;;;;;6.77;6.27;;;15.20;99.90;;;;;;4899102;29;20278;-64
2021/09/12 01:52:42;;;;;;;7.33;6.63;;;15.20;99.90;;;;;;4899227;29;20914;-65
2021/09/12 01:55:08;;;;;;;7.90;7.30;;;15.20;99.90;;;;;;4899144;29;20654;-64
2021/09/12 01:57:34;;;;;;;7.10;6.40;;;15.20;99.90;;;;;;4898734;29;20644;-64
2021/09/12 01:59:59;;;;;;;10.83;7.47;;;15.10;99.90;;;;;;4899947;29;20439;-64
2021/09/12 02:02:25;;;;;;;7.87;7.17;;;15.00;99.90;;;;;;4905275;29;20596;-64
2021/09/12 02:04:50;;;;;;;7.30;6.70;;;15.00;99.90;;;;;;4917123;29;20190;-64
2021/09/12 02:07:16;;;;;;;6.57;6.00;;;14.90;99.90;;;;;;4917534;29;20192;-65
2021/09/12 02:09:41;;;;;;;7.73;6.97;;;14.90;99.90;;;;;;4917565;29;20205;-65
2021/09/12 02:12:07;;;;;;;7.40;6.70;;;14.90;99.90;;;;;;4917455;29;20197;-64
2021/09/12 02:14:33;;;;;;;7.80;7.20;;;14.90;99.90;;;;;;4901620;29;20188;-65
2021/09/12 02:16:58;;;;;;;8.20;7.50;;;14.90;99.90;;;;;;4898713;29;20190;-64
2021/09/12 02:19:24;;;;;;;7.20;6.57;;;14.90;99.90;;;;;;4898236;29;20229;-62
2021/09/12 02:21:49;;;;;;;7.40;6.90;;;14.90;99.90;;;;;;4898519;29;20198;-62
2021/09/12 02:24:15;;;;;;;7.07;6.37;;;14.90;99.90;;;;;;4916543;29;20197;-62
2021/09/12 02:26:40;;;;;;;7.70;7.00;;;14.90;99.90;;;;;;4916885;29;20205;-64
2021/09/12 02:29:06;;;;;;;7.73;7.13;;;14.90;99.90;;;;;;4916864;29;20208;-65
2021/09/12 02:31:31;;;;;;;8.10;7.30;;;14.90;99.90;;;;;;4917342;29;20257;-62
2021/09/12 02:33:57;;;;;;;10.37;8.50;;;14.70;99.90;;;;;;4917001;29;20720;-62
2021/09/12 02:36:22;;;;;;;9.37;7.40;;;14.50;99.90;;;;;;4916948;29;20179;-64
2021/09/12 02:38:48;;;;;;;8.40;7.60;;;14.50;99.90;;;;;;4912570;29;20202;-64
2021/09/12 02:41:13;;;;;;;8.70;7.17;;;14.50;99.90;;;;;;4899008;29;20171;-64
2021/09/12 02:43:39;;;;;;;7.77;6.97;;;14.50;99.90;;;;;;4914055;29;20266;-64
2021/09/12 02:46:05;;;;;;;7.10;6.53;;;14.50;99.90;;;;;;4897904;29;20211;-64
2021/09/12 02:48:31;;;;;;;7.53;6.93;;;14.50;99.90;;;;;;4897651;29;20439;-64
2021/09/12 02:50:56;;;;;;;7.60;6.90;;;14.50;99.90;;;;;;4902524;29;20244;-65
2021/09/12 02:53:22;;;;;;;7.83;7.13;;;14.40;99.90;;;;;;4915073;29;20185;-65
2021/09/12 02:55:47;;;;;;;7.00;6.30;;;14.50;99.90;;;;;;4916934;29;20190;-62
2021/09/12 02:58:13;;;;;;;7.53;6.80;;;14.40;99.90;;;;;;4916439;29;20194;-65
2021/09/12 03:00:38;;;;;;;7.30;6.67;;;14.40;99.90;;;;;;4914828;29;20568;-64
2021/09/12 03:03:04;;;;;;;7.80;7.00;;;14.40;99.90;;;;;;4915160;29;20185;-64
2021/09/12 03:05:30;;;;;;;7.40;6.70;;;14.30;99.90;;;;;;4916719;29;20185;-64
2021/09/12 03:07:55;;;;;;;7.57;6.17;;;14.30;99.90;;;;;;4899265;29;20206;-64
2021/09/12 03:10:21;;;;;;;7.57;6.77;;;14.30;99.90;;;;;;4897634;29;20215;-64
2021/09/12 03:12:46;;;;;;;7.00;6.40;;;14.30;99.90;;;;;;4897651;29;20266;-64
2021/09/12 03:15:12;;;;;;;6.60;6.10;;;14.30;99.90;;;;;;4897524;29;20679;-64
2021/09/12 03:17:38;;;;;;;6.70;5.50;;;14.40;99.90;;;;;;4906295;29;20222;-64
2021/09/12 03:20:04;;;;;;;7.40;6.80;;;14.30;99.90;;;;;;4904863;29;20187;-65
2021/09/12 03:22:29;;;;;;;6.53;5.93;;;14.20;99.90;;;;;;4897634;29;20179;-64
2021/09/12 03:24:55;;;;;;;7.80;6.10;;;14.20;99.90;;;;;;4909989;29;20465;-64
2021/09/12 03:27:21;;;;;;;6.70;6.23;;;14.20;99.90;;;;;;4915967;29;20233;-64
2021/09/12 03:29:46;;;;;;;6.00;5.50;;;14.20;99.90;;;;;;4915614;29;20288;-65
2021/09/12 03:32:12;;;;;;;8.23;6.70;;;14.30;99.90;;;;;;4915980;29;20185;-64
2021/09/12 03:34:37;;;;;;;7.10;6.00;;;14.20;99.90;;;;;;4915908;29;20178;-64
2021/09/12 03:37:03;;;;;;;6.63;6.03;;;14.10;99.90;;;;;;4915947;29;20554;-64
2021/09/12 03:39:28;;;;;;;6.20;5.70;;;14.00;99.90;;;;;;4914881;29;20229;-64
2021/09/12 03:41:54;;;;;;;6.73;6.13;;;13.90;99.90;;;;;;4912385;29;20194;-65
2021/09/12 03:44:20;;;;;;;6.87;6.17;;;14.00;99.90;;;;;;4916053;29;20182;-64
2021/09/12 03:46:45;;;;;;;7.60;7.00;;;14.00;99.90;;;;;;4915964;29;20648;-64
2021/09/12 03:49:11;;;;;;;6.73;5.83;;;14.00;99.90;;;;;;4915343;29;20676;-64
2021/09/12 03:51:36;;;;;;;9.70;7.00;;;14.10;99.90;;;;;;4915710;29;20190;-64
2021/09/12 03:54:02;;;;;;;9.10;6.00;;;14.00;99.90;;;;;;4915674;29;20186;-64
2021/09/12 03:56:28;;;;;;;6.07;5.57;;;14.00;99.90;;;;;;4915019;29;20183;-64
2021/09/12 03:58:53;;;;;;;6.30;5.47;;;14.00;99.90;;;;;;4915420;29;20269;-64
2021/09/12 04:01:19;;;;;;;5.83;5.33;;;14.00;99.90;;;;;;4915867;29;20185;-64
2021/09/12 04:03:44;;;;;;;6.23;5.63;;;14.00;99.90;;;;;;4915399;29;20178;-64
2021/09/12 04:06:10;;;;;;;10.77;5.93;;;14.00;99.90;;;;;;4915837;29;20225;-64
2021/09/12 04:08:36;;;;;;;6.83;6.20;;;14.00;99.90;;;;;;4915516;29;20209;-64
2021/09/12 04:11:01;;;;;;;7.07;6.47;;;14.00;99.90;;;;;;4915812;29;20209;-64
2021/09/12 04:13:27;;;;;;;6.10;5.60;;;13.90;99.90;;;;;;4915655;29;20173;-64
2021/09/12 04:15:52;;;;;;;6.87;6.20;;;13.70;99.90;;;;;;4915756;29;20170;-64
2021/09/12 04:18:18;;;;;;;6.90;6.20;;;13.60;99.90;;;;;;4915400;29;20194;-64
2021/09/12 04:20:44;;;;;;;6.43;5.40;;;13.70;99.90;;;;;;4915702;29;20261;-64
2021/09/12 04:23:09;;;;;;;6.07;5.30;;;13.60;99.90;;;;;;4915457;29;20186;-64
2021/09/12 04:25:35;;;;;;;6.60;5.80;;;13.60;99.90;;;;;;4915454;29;20178;-64
2021/09/12 04:28:00;;;;;;;6.20;5.57;;;13.70;99.90;;;;;;4915239;29;20600;-64
2021/09/12 04:30:26;;;;;;;6.23;5.63;;;13.60;99.90;;;;;;4915285;29;20575;-63
2021/09/12 04:32:51;;;;;;;7.30;6.70;;;13.60;99.90;;;;;;4916284;29;20249;-63
2021/09/12 04:35:17;;;;;;;7.67;6.97;;;13.60;99.90;;;;;;4915552;29;20182;-64
2021/09/12 04:37:43;;;;;;;6.30;5.80;;;13.50;99.90;;;;;;4915285;29;20190;-64
2021/09/12 04:40:09;;;;;;;6.03;5.53;;;13.50;99.90;;;;;;4915368;29;20182;-64
2021/09/12 04:42:35;;;;;;;5.47;4.90;;;13.50;99.90;;;;;;4915478;29;20609;-62
2021/09/12 04:45:01;;;;;;;8.43;6.20;;;13.60;99.90;;;;;;4915509;29;20433;-62
2021/09/12 04:47:27;;;;;;;5.53;5.03;;;13.60;99.90;;;;;;4915204;29;20178;-62
2021/09/12 04:49:52;;;;;;;7.17;6.40;;;13.50;99.90;;;;;;4915626;29;20461;-64
2021/09/12 04:52:17;;;;;;;6.77;6.17;;;13.40;99.90;;;;;;4915254;29;20241;-64
2021/09/12 04:54:43;;;;;;;5.37;4.97;;;13.40;99.90;;;;;;4915490;29;20259;-64
2021/09/12 04:57:09;;;;;;;5.73;5.33;;;13.40;99.90;;;;;;4915225;29;20172;-64
2021/09/12 04:59:36;;;;;;;5.33;4.93;;;13.40;99.90;;;;;;4915207;29;20201;-64
2021/09/12 05:02:03;;;;;;;6.43;5.73;;;13.40;99.90;;;;;;4915249;29;20547;-64
2021/09/12 05:04:29;;;;;;;12.43;5.70;;;13.50;99.90;;;;;;4914957;29;20824;-64
2021/09/12 05:06:54;;;;;;;5.30;4.80;;;13.50;99.90;;;;;;4915415;29;20501;-64
2021/09/12 05:09:23;;;;;;;5.27;4.87;;;13.40;99.90;;;;;;4917934;29;20242;-63
2021/09/12 05:11:49;;;;;;;5.90;5.40;;;13.50;99.90;;;;;;4918780;29;20175;-64
2021/09/12 05:14:14;;;;;;;6.33;5.70;;;13.60;99.90;;;;;;4918772;29;20417;-64
2021/09/12 05:16:40;;;;;;;6.17;5.67;;;13.50;99.90;;;;;;4918739;29;20265;-63
2021/09/12 05:19:05;;;;;;;6.17;5.67;;;13.50;99.90;;;;;;4918430;29;20203;-64
2021/09/12 05:21:31;;;;;;;6.17;5.60;;;13.40;99.90;;;;;;4918343;29;20209;-64
2021/09/12 05:23:56;;;;;;;6.50;5.70;;;13.50;99.90;;;;;;4918680;29;20182;-64
2021/09/12 05:26:22;;;;;;;6.50;6.00;;;13.60;99.90;;;;;;4918512;29;20265;-64
2021/09/12 05:28:47;;;;;;;5.43;5.03;;;13.70;99.90;;;;;;4918064;29;20577;-64
2021/09/12 05:31:13;;;;;;;6.77;5.30;;;13.70;99.90;;;;;;4918446;29;20221;-64
2021/09/12 05:33:38;;;;;;;7.13;5.20;;;13.80;99.90;;;;;;4918405;29;20174;-62
2021/09/12 05:36:04;;;;;;;6.53;5.93;;;13.90;99.90;;;;;;4918555;29;20699;-62
2021/09/12 05:38:30;;;;;;;6.57;5.20;;;14.00;99.90;;;;;;4918047;29;20603;-62
2021/09/12 05:40:55;;;;;;;6.40;5.90;;;14.10;99.90;;;;;;4918092;29;20856;-62
2021/09/12 05:43:21;;;;;;;5.60;5.03;;;14.20;99.90;;;;;;4901365;29;20178;-62
2021/09/12 05:45:46;;;;;;;10.80;5.60;;;14.30;99.90;;;;;;4899307;29;20210;-64
2021/09/12 05:48:12;;;;;;;6.07;5.43;;;14.50;99.90;;;;;;4904086;29;20209;-64
2021/09/12 05:50:37;;;;;;;7.03;6.43;;;14.60;99.90;;;;;;4918017;29;20269;-64
2021/09/12 05:53:09;;;;;;;7.07;6.57;;;14.60;99.90;;;;;;4918182;29;20201;-64
2021/09/12 05:55:35;;;;;;;16.23;6.63;;;14.70;99.90;;;;;;4917777;29;20186;-64
2021/09/12 05:58:00;;;;;;;6.10;5.60;;;14.90;99.90;;;;;;4917476;29;20963;-64
2021/09/12 06:00:26;;;;;;;5.83;5.33;;;15.10;99.90;;;;;;4917446;29;20427;-64
2021/09/12 06:02:52;;;;;;;7.43;6.40;;;15.30;99.90;;;;;;4917565;29;20178;-64
2021/09/12 06:05:17;;;;;;;6.47;6.00;;;15.40;99.90;;;;;;4917620;29;20202;-64
2021/09/12 06:07:43;;;;;;;6.10;5.50;;;15.50;99.90;;;;;;4912980;29;20214;-63
2021/09/12 06:10:09;;;;;;;6.17;5.67;;;15.50;99.90;;;;;;4906358;29;20201;-61
2021/09/12 06:12:34;;;;;;;8.70;5.90;;;15.70;99.90;;;;;;4905120;29;20183;-62
2021/09/12 06:15:00;;;;;;;6.50;5.70;;;15.70;99.90;;;;;;4914590;29;20775;-62
2021/09/12 06:17:26;;;;;;;6.47;5.77;;;15.90;99.90;;;;;;4916748;29;20222;-62
2021/09/12 06:19:51;;;;;;;6.77;5.63;;;16.00;99.90;;;;;;4916910;29;20186;-61
2021/09/12 06:22:17;;;;;;;5.07;4.67;;;16.20;99.90;;;;;;4917649;29;20217;-61
2021/09/12 06:24:43;;;;;;;6.23;5.73;;;16.30;99.90;;;;;;4917219;29;20190;-61
2021/09/12 06:27:08;;;;;;;6.40;5.90;;;16.40;99.90;;;;;;4917262;29;20210;-62
2021/09/12 06:29:34;;;;;;;6.87;6.20;;;16.60;99.90;;;;;;4917076;29;20454;-64
2021/09/12 06:31:59;;;;;;;5.97;5.47;;;16.80;99.90;;;;;;4916854;29;20183;-64
2021/09/12 06:34:25;;;;;;;12.57;11.40;;;16.90;99.90;;;;;;4917009;29;20178;-64
2021/09/12 06:36:51;;;;;;;8.80;8.07;;;17.10;99.90;;;;;;4916913;29;20186;-63
2021/09/12 06:39:16;;;;;;;5.13;4.83;;;17.40;99.90;;;;;;4916483;29;20664;-64
2021/09/12 06:41:42;;;;;;;7.13;5.07;;;17.50;99.90;;;;;;4916951;29;20186;-63
2021/09/12 06:44:07;;;;;;;6.57;6.07;;;17.70;99.90;;;;;;4916922;29;20605;-64
2021/09/12 06:46:34;;;;;;;6.43;5.83;;;18.00;99.90;;;;;;4917254;29;20605;-64
2021/09/12 06:48:59;;;;;;;9.37;6.37;;;18.00;99.90;;;;;;4916805;29;20552;-64
2021/09/12 06:51:25;;;;;;;6.03;5.57;;;18.20;99.90;;;;;;4917169;29;20427;-63
2021/09/12 06:53:50;;;;;;;11.23;9.40;;;18.30;99.90;;;;;;4916939;29;20254;-64
2021/09/12 06:56:16;;;;;;;7.97;7.33;;;18.40;99.90;;;;;;4916671;29;20183;-64
2021/09/12 06:58:42;;;;;;;13.97;8.63;;;18.70;99.90;;;;;;4916476;29;20201;-64
2021/09/12 07:01:08;;;;;;;7.63;7.13;;;18.80;99.90;;;;;;4916927;29;20209;-64
2021/09/12 07:03:33;;;;;;;8.50;7.70;;;18.90;99.90;;;;;;4916780;29;20473;-64
2021/09/12 07:05:59;;;;;;;7.33;6.77;;;19.20;99.90;;;;;;4916725;29;20469;-61
2021/09/12 07:08:25;;;;;;;8.60;5.90;;;19.30;99.90;;;;;;4911889;29;20700;-62
2021/09/12 07:10:51;;;;;;;6.57;5.97;;;19.40;99.90;;;;;;4916269;29;20296;-64
2021/09/12 07:13:16;;;;;;;6.33;5.73;;;19.60;99.90;;;;;;4916464;29;20449;-64
2021/09/12 07:15:42;;;;;;;6.20;5.60;;;19.60;99.90;;;;;;4905924;29;20253;-62
2021/09/12 07:18:07;;;;;;;6.83;6.23;;;19.60;99.90;;;;;;4915772;29;20557;-62
2021/09/12 07:20:33;;;;;;;7.33;6.50;;;19.60;99.90;;;;;;4915616;29;20259;-62
2021/09/12 07:22:58;;;;;;;7.53;5.60;;;19.80;99.90;;;;;;4915809;29;20648;-62
2021/09/12 07:25:24;;;;;;;7.20;6.50;;;20.00;99.90;;;;;;4915911;29;20171;-65
2021/09/12 07:27:50;;;;;;;7.63;7.13;;;20.00;99.90;;;;;;4907383;29;20213;-63
2021/09/12 07:30:16;;;;;;;5.67;5.23;;;19.90;99.90;;;;;;4897470;29;20239;-64
2021/09/12 07:32:42;;;;;;;5.47;5.07;;;20.00;99.90;;;;;;4896674;29;20696;-64
2021/09/12 07:35:08;;;;;;;6.80;6.10;;;20.10;99.90;;;;;;4897408;29;20506;-64
2021/09/12 07:37:34;;;;;;;7.10;6.47;;;20.30;99.90;;;;;;4896886;29;20419;-64
2021/09/12 07:40:00;;;;;;;5.00;4.60;;;20.60;99.90;;;;;;4909757;29;20453;-59
2021/09/12 07:42:25;;;;;;;6.17;5.67;;;20.80;99.90;;;;;;4906321;29;20675;-58
2021/09/12 07:44:51;;;;;;;5.43;5.00;;;21.00;99.90;;;;;;4913477;29;20225;-59
2021/09/12 07:47:17;;;;;;;5.63;5.23;;;21.40;99.90;;;;;;4915798;29;20181;-59
2021/09/12 07:49:42;;;;;;;5.90;5.40;;;21.60;99.90;;;;;;4903498;29;20257;-60
2021/09/12 07:52:08;;;;;;;4.97;4.37;;;21.30;99.90;;;;;;4909763;29;20206;-60
2021/09/12 07:54:33;;;;;;;6.10;4.80;;;21.40;99.90;;;;;;4916218;29;20170;-60
2021/09/12 07:56:59;;;;;;;6.80;6.13;;;21.50;99.90;;;;;;4916259;29;20246;-60
2021/09/12 07:59:27;;;;;;;5.13;4.73;;;21.70;99.90;;;;;;4916226;29;20209;-60
2021/09/12 08:01:52;;;;;;;4.20;3.90;;;21.80;99.90;;;;;;4907936;29;20183;-60
2021/09/12 08:04:18;;;;;;;4.80;4.50;;;22.00;99.90;;;;;;4914540;29;20434;-63
2021/09/12 08:06:43;;;;;;;4.80;4.40;;;21.70;99.90;;;;;;4915948;29;20623;-61
2021/09/12 08:09:09;;;;;;;5.63;5.17;;;22.10;99.90;;;;;;4907637;29;20230;-61
2021/09/12 08:11:34;;;;;;;7.83;7.10;;;22.20;99.90;;;;;;4913732;29;20189;-60
2021/09/12 08:14:00;;;;;;;6.00;5.50;;;22.50;99.90;;;;;;4912199;29;20200;-61
2021/09/12 08:16:26;;;;;;;3.80;3.60;;;22.80;99.90;;;;;;4910833;29;20604;-60
2021/09/12 08:18:51;;;;;;;4.63;4.17;;;22.90;99.90;;;;;;4915522;29;20199;-61
2021/09/12 08:21:17;;;;;;;4.70;4.33;;;23.10;99.90;;;;;;4915722;29;20192;-62
2021/09/12 08:23:42;;;;;;;4.70;4.30;;;23.40;99.90;;;;;;4912183;29;20547;-61
2021/09/12 08:26:08;;;;;;;5.27;4.80;;;23.60;99.90;;;;;;4915905;29;20185;-61
2021/09/12 08:28:33;;;;;;;4.47;4.00;;;23.80;99.90;;;;;;4899180;29;20191;-61
2021/09/12 08:31:00;;;;;;;5.23;4.77;;;24.00;99.90;;;;;;4897343;29;20262;-60
2021/09/12 08:33:25;;;;;;;4.13;3.83;;;23.70;99.90;;;;;;4906850;29;20179;-60
2021/09/12 08:35:51;;;;;;;4.00;3.70;;;23.90;99.90;;;;;;4900719;29;21029;-61
2021/09/12 08:38:16;;;;;;;4.77;3.90;;;24.30;99.90;;;;;;4904735;29;20218;-61
2021/09/12 08:40:42;;;;;;;6.10;3.90;;;24.50;99.90;;;;;;4896979;29;20649;-61
2021/09/12 08:43:08;;;;;;;6.67;4.87;;;24.00;99.90;;;;;;4911457;29;20190;-61
2021/09/12 08:45:34;;;;;;;4.30;4.00;;;24.30;99.90;;;;;;4919727;29;20246;-58
2021/09/12 08:48:00;;;;;;;4.53;3.77;;;24.50;99.90;;;;;;4919717;29;20200;-60
2021/09/12 08:50:27;;;;;;;6.50;3.40;;;25.20;99.90;;;;;;4918908;29;20458;-60
2021/09/12 08:52:52;;;;;;;4.47;4.07;;;25.80;99.90;;;;;;4919329;29;20418;-60
2021/09/12 08:55:18;;;;;;;4.13;3.70;;;26.00;99.90;;;;;;4919455;29;20441;-61
2021/09/12 08:57:54;;;;;;;3.53;3.23;;;26.40;99.90;;;;;;4908570;29;20230;-60
2021/09/12 09:00:25;;;;;;;3.43;2.93;;;26.50;99.90;;;;;;4908992;29;20225;-60
2021/09/12 09:03:04;;;;;;;3.07;2.60;;;26.90;99.80;;;;;;4908847;29;20433;-60
2021/09/12 09:05:33;;;;;;;2.83;2.70;;;27.10;98.60;;;;;;4918838;29;20998;-60
2021/09/12 09:08:05;;;;;;;2.80;2.53;;;27.40;97.40;;;;;;4918696;29;20919;-59
2021/09/12 09:10:37;;;;;;;3.00;2.70;;;27.60;96.40;;;;;;4915975;29;20505;-60
2021/09/12 09:13:02;;;;;;;2.70;2.50;;;27.70;94.60;;;;;;4913661;29;20422;-61
2021/09/12 09:15:28;;;;;;;2.43;2.23;;;28.60;95.20;;;;;;4919341;29;20998;-61
2021/09/12 09:17:54;;;;;;;2.57;2.37;;;28.80;93.20;;;;;;4919402;29;20193;-61
2021/09/12 09:20:33;;;;;;;3.03;2.73;;;29.20;92.90;;;;;;4919887;29;20692;-61
2021/09/12 09:22:58;;;;;;;3.00;2.80;;;29.50;91.80;;;;;;4919803;29;20425;-61
2021/09/12 09:25:29;;;;;;;3.23;3.03;;;29.40;91.50;;;;;;4919152;29;20513;-62
2021/09/12 09:28:04;;;;;;;3.00;2.70;;;30.40;90.10;;;;;;4919520;29;20201;-61
2021/09/12 09:30:53;;;;;;;2.80;2.60;;;31.20;88.00;;;;;;4920167;29;20472;-61
2021/09/12 09:33:29;;;;;;;2.93;2.73;;;31.20;83.50;;;;;;4919453;29;20422;-61
2021/09/12 09:36:15;;;;;;;3.20;3.00;;;31.90;81.90;;;;;;4919347;29;20418;-61
2021/09/12 09:38:40;;;;;;;4.43;4.10;;;32.60;79.30;;;;;;4918380;29;20446;-62
2021/09/12 09:41:12;;;;;;;5.30;2.93;;;33.10;73.40;;;;;;4919724;29;21007;-61
2021/09/12 09:43:40;;;;;;;4.50;4.20;;;31.00;76.40;;;;;;4919690;29;20222;-61
2021/09/12 09:46:24;;;;;;;2.70;2.60;;;30.20;76.50;;;;;;4950103;29;20481;-61
2021/09/12 09:48:49;;;;;;;3.27;2.90;;;29.70;80.20;;;;;;4919231;29;20450;-61
2021/09/12 09:51:15;;;;;;;3.00;2.80;;;32.00;75.90;;;;;;4919092;29;20888;-62
2021/09/12 09:53:42;;;;;;;3.53;3.10;;;32.30;72.80;;;;;;4919096;29;20182;-61
2021/09/12 09:56:08;;;;;;;2.70;2.60;;;31.80;73.00;;;;;;4918640;29;21058;-61
2021/09/12 09:58:34;;;;;;;2.97;2.77;;;31.90;74.40;;;;;;4918362;29;20455;-61
2021/09/12 10:01:01;;;;;;;3.73;3.50;;;32.60;73.10;;;;;;4918143;29;20253;-61
2021/09/12 10:03:28;;;;;;;2.57;2.47;;;34.50;70.10;;;;;;4917987;29;20803;-62
2021/09/12 10:05:54;;;;;;;3.40;3.20;;;34.60;66.70;;;;;;4917929;29;20830;-61
2021/09/12 10:08:20;;;;;;;2.43;2.33;;;36.00;62.40;;;;;;4917897;29;20453;-61
2021/09/12 10:10:45;;;;;;;2.70;2.40;;;35.70;60.70;;;;;;4918366;29;20213;-61
2021/09/12 10:13:13;;;;;;;12.57;11.67;;;36.70;59.30;;;;;;4918259;29;20427;-62
2021/09/12 10:15:40;;;;;;;2.93;2.73;;;37.30;57.80;;;;;;4918342;29;20652;-62
2021/09/12 10:18:07;;;;;;;3.50;3.20;;;37.00;55.30;;;;;;4918061;29;20442;-62
2021/09/12 10:20:35;;;;;;;2.87;2.67;;;37.60;54.50;;;;;;4918449;29;20596;-62
2021/09/12 10:23:06;;;;;;;3.30;3.10;;;38.30;53.50;;;;;;4918428;29;20509;-62
2021/09/12 10:25:49;;;;;;;2.80;2.60;;;37.70;52.80;;;;;;4917855;29;20418;-62
2021/09/12 10:28:28;;;;;;;2.43;2.30;;;35.70;53.70;;;;;;4917481;29;20457;-61
2021/09/12 10:30:53;;;;;;;2.77;2.63;;;34.00;55.20;;;;;;4919332;29;20462;-61
2021/09/12 10:33:20;;;;;;;2.90;2.70;;;32.50;57.10;;;;;;4917446;29;20418;-61
2021/09/12 10:35:59;;;;;;;3.37;3.10;;;30.90;59.70;;;;;;4917337;29;20245;-61
2021/09/12 10:38:30;;;;;;;2.90;2.53;;;30.50;60.40;;;;;;4916715;29;20442;-61
2021/09/12 10:40:55;;;;;;;3.00;2.80;;;30.50;60.20;;;;;;4917339;29;20418;-61
2021/09/12 10:43:24;;;;;;;3.93;3.10;;;30.30;61.40;;;;;;4917152;29;20513;-61
2021/09/12 10:45:58;;;;;;;3.53;3.23;;;30.20;61.90;;;;;;4917186;29;20197;-61
2021/09/12 10:48:24;;;;;;;2.90;2.70;;;29.40;62.10;;;;;;4916847;29;20445;-61
2021/09/12 10:50:50;;;;;;;3.33;3.13;;;28.80;65.00;;;;;;4917016;29;20541;-60
2021/09/12 10:53:16;;;;;;;2.90;2.70;;;27.80;66.30;;;;;;4917059;29;20230;-61
2021/09/12 10:55:57;;;;;;;3.30;3.00;;;27.90;67.00;;;;;;4916933;29;20430;-61
2021/09/12 10:58:22;;;;;;;3.30;3.00;;;30.40;64.00;;;;;;4916703;29;20190;-61
2021/09/12 11:00:48;;;;;;;3.20;3.00;;;33.10;59.40;;;;;;4916994;29;20422;-62
2021/09/12 11:03:16;;;;;;;3.47;3.13;;;35.30;56.10;;;;;;4916904;29;20186;-62
2021/09/12 11:05:42;;;;;;;3.10;2.90;;;36.30;53.10;;;;;;4916598;29;20261;-62
2021/09/12 11:08:07;;;;;;;2.80;2.60;;;35.90;52.80;;;;;;4916483;29;20538;-62
2021/09/12 11:10:40;;;;;;;3.00;2.80;;;37.10;51.90;;;;;;4916730;29;20201;-62
2021/09/12 11:13:07;;;;;;;3.10;2.80;;;38.30;50.70;;;;;;4916730;29;20162;-62
2021/09/12 11:15:33;;;;;;;3.03;2.83;;;39.30;48.50;;;;;;4916678;29;20430;-62
2021/09/12 11:17:59;;;;;;;2.80;2.70;;;39.90;47.70;;;;;;4916269;29;20441;-62
2021/09/12 11:20:45;;;;;;;2.80;2.60;;;40.90;45.50;;;;;;4916403;29;20827;-62
2021/09/12 11:23:29;;;;;;;2.40;2.30;;;41.60;43.30;;;;;;4916532;29;20553;-62
2021/09/12 11:25:57;;;;;;;2.53;2.43;;;42.00;42.80;;;;;;4916550;29;20439;-62
2021/09/12 11:28:28;;;;;;;3.13;2.77;;;39.20;42.10;;;;;;4916112;29;20449;-62
2021/09/12 11:30:55;;;;;;;5.50;5.20;;;39.60;43.80;;;;;;4916290;29;20549;-62
2021/09/12 11:33:20;;;;;;;4.53;2.83;;;39.80;43.40;;;;;;4916361;29;20855;-62
2021/09/12 11:35:59;;;;;;;2.93;2.73;;;39.70;42.50;;;;;;4916322;29;20513;-62
2021/09/12 11:38:27;;;;;;;3.83;3.50;;;38.70;43.50;;;;;;4915723;29;20234;-62
2021/09/12 11:40:58;;;;;;;3.20;3.10;;;38.60;43.50;;;;;;4916174;29;20430;-62
2021/09/12 11:43:25;;;;;;;3.07;2.87;;;36.70;44.50;;;;;;4916151;29;20513;-61
2021/09/12 11:46:06;;;;;;;2.83;2.73;;;34.60;46.80;;;;;;4916222;29;20958;-62
2021/09/12 11:48:32;;;;;;;2.37;2.17;;;36.60;45.80;;;;;;4915874;29;20960;-62
2021/09/12 11:50:57;;;;;;;2.50;2.40;;;39.00;44.00;;;;;;4915902;29;20492;-62
2021/09/12 11:53:27;;;;;;;2.67;2.57;;;40.10;42.30;;;;;;4915963;29;20588;-62
2021/09/12 11:55:53;;;;;;;4.57;2.43;;;40.30;41.90;;;;;;4916084;29;20171;-62
2021/09/12 11:58:20;;;;;;;2.50;2.40;;;40.10;41.50;;;;;;4915764;29;20454;-62
2021/09/12 12:00:47;;;;;;;2.30;2.17;;;41.30;40.80;;;;;;4916049;29;20795;-62
2021/09/12 12:03:15;;;;;;;2.73;2.40;;;41.40;40.20;;;;;;4916406;29;20509;-62
2021/09/12 12:05:43;;;;;;;2.50;2.30;;;41.60;40.10;;;;;;4915743;29;20515;-62
2021/09/12 12:08:14;;;;;;;3.03;2.83;;;43.10;39.90;;;;;;4915578;29;20525;-62
2021/09/12 12:10:40;;;;;;;2.53;2.43;;;41.50;38.50;;;;;;4915813;29;20520;-60
2021/09/12 12:13:06;;;;;;;3.83;2.60;;;40.30;40.20;;;;;;4915818;29;20446;-62
2021/09/12 12:15:38;;;;;;;3.47;2.97;;;40.90;40.90;;;;;;4915852;29;20477;-61
2021/09/12 12:18:15;;;;;;;2.50;2.40;;;41.70;40.50;;;;;;4918569;29;20445;-62
2021/09/12 12:20:42;;;;;;;2.70;2.50;;;42.60;38.30;;;;;;4921908;29;20445;-62
2021/09/12 12:23:16;;;;;;;3.10;2.90;;;42.40;38.70;;;;;;4922292;29;20433;-62
2021/09/12 12:25:42;;;;;;;2.70;2.50;;;42.60;37.70;;;;;;4921960;29;20426;-62
2021/09/12 12:28:21;;;;;;;2.40;2.20;;;40.40;38.60;;;;;;4921747;29;20442;-62
2021/09/12 12:31:12;;;;;;;3.30;3.00;;;38.60;42.00;;;;;;4921895;29;20465;-61
2021/09/12 12:33:39;;;;;;;2.30;2.20;;;37.90;42.00;;;;;;4921965;29;20434;-61
2021/09/12 12:36:09;;;;;;;2.60;2.47;;;36.70;42.90;;;;;;4921890;29;20426;-61
2021/09/12 12:38:36;;;;;;;3.10;2.80;;;34.60;44.20;;;;;;4921373;29;20469;-61
2021/09/12 12:41:24;;;;;;;2.80;2.60;;;34.60;45.80;;;;;;4921969;29;20437;-62
2021/09/12 12:43:50;;;;;;;2.43;2.33;;;37.70;43.20;;;;;;4921813;29;20430;-62